CheckWX is a tool to help pilots better visualize weather data.  It is not intended as a substitute for an official pre-flight weather briefing.

13:50:41 UTC

KBWI TAF
Baltimore / Washington International Thurgood Marshall Airport
Baltimore, Maryland, USA
KBWI 191228Z 1912/2018 23004KT 2SM BR SCT005 BKN070 FM191500 VRB03KT P6SM BKN030 FM192100 28005KT P6SM BKN050 FM201200 31005KT P6SM BKN050 FM201600 31010G17KT P6SM SCT050

Nov-19@
12:00 UTC

Nov-19 @ 12:00 UTC

Nov-19@
15:00 UTC

Nov-19 @ 15:00 UTC

KBWI 191228Z 1912/2018 23004KT 2SM BR SCT005 BKN070
Wind
  • 230° at 4 KTS
Conditions
Mist
Cloud Levels
  • Scattered at 500' AGL
  • Broken at 7,000' AGL

Nov-19@
15:00 UTC

Nov-19 @ 15:00 UTC

Nov-19@
21:00 UTC

Nov-19 @ 21:00 UTC

FM191500 VRB03KT P6SM BKN030

From

From Standard forecast or significant change

Wind
  • Variable at 3 KTS
Cloud Levels
  • Broken at 3,000' AGL

Nov-19@
21:00 UTC

Nov-19 @ 21:00 UTC

Nov-20@
12:00 UTC

Nov-20 @ 12:00 UTC

FM192100 28005KT P6SM BKN050

From

From Standard forecast or significant change

Wind
  • 280° at 5 KTS
Cloud Levels
  • Broken at 5,000' AGL

Nov-20@
12:00 UTC

Nov-20 @ 12:00 UTC

Nov-20@
16:00 UTC

Nov-20 @ 16:00 UTC

FM201200 31005KT P6SM BKN050

From

From Standard forecast or significant change

Wind
  • 310° at 5 KTS
Cloud Levels
  • Broken at 5,000' AGL

Nov-20@
16:00 UTC

Nov-20 @ 16:00 UTC

Nov-20@
18:00 UTC

Nov-20 @ 18:00 UTC

FM201600 31010G17KT P6SM SCT050

From

From Standard forecast or significant change

Wind
  • 310° at 10 KTS
  • {Gusting to 17 KTS
Cloud Levels
  • Scattered at 5,000' AGL